createdAt,value
2022-12-18T00:01:20.442Z,100
2022-12-18T00:11:20.632Z,100
2022-12-18T00:21:21.257Z,100
2022-12-18T00:31:21.963Z,100
2022-12-18T00:41:22.901Z,100
2022-12-18T00:51:23.882Z,100
2022-12-18T01:11:24.660Z,100
2022-12-18T01:21:25.238Z,100
2022-12-18T01:31:26.190Z,100
2022-12-18T01:41:27.021Z,100
2022-12-18T01:51:27.156Z,100
2022-12-18T02:01:27.995Z,100
2022-12-18T02:11:28.197Z,100
2022-12-18T02:21:29.028Z,100
2022-12-18T02:31:29.864Z,100
2022-12-18T02:41:29.937Z,100
2022-12-18T02:51:30.369Z,100
2022-12-18T03:01:30.935Z,100
2022-12-18T03:11:31.663Z,100
2022-12-18T03:21:32.376Z,100
2022-12-18T03:31:33.289Z,100
2022-12-18T03:41:34.165Z,100
2022-12-18T04:01:35.805Z,100
2022-12-18T04:11:36.511Z,100
2022-12-18T04:21:37.429Z,100
2022-12-18T04:31:37.762Z,100
2022-12-18T04:41:37.847Z,100
2022-12-18T05:01:39.811Z,100
2022-12-18T05:11:40.747Z,100
2022-12-18T05:21:41.082Z,100
2022-12-18T05:31:41.277Z,100
2022-12-18T05:41:42.016Z,100
2022-12-18T05:51:42.674Z,100
2022-12-18T06:01:43.066Z,100
2022-12-18T06:11:43.839Z,100
2022-12-18T06:21:43.961Z,100
2022-12-18T06:31:44.592Z,100
2022-12-18T06:41:45.440Z,100
2022-12-18T06:51:46.353Z,100
2022-12-18T07:11:47.628Z,100
2022-12-18T07:21:48.624Z,100
2022-12-18T07:31:49.142Z,100
2022-12-18T07:51:50.408Z,100
2022-12-18T08:11:50.815Z,100
2022-12-18T08:31:52.580Z,100
2022-12-18T08:51:53.960Z,100
2022-12-18T09:01:54.466Z,100
2022-12-18T09:11:55.346Z,100
2022-12-18T09:21:55.668Z,100
2022-12-18T09:31:56.250Z,100
2022-12-18T09:41:56.353Z,100
2022-12-18T09:51:57.052Z,100
2022-12-18T10:01:58.101Z,100
2022-12-18T10:11:58.657Z,100
2022-12-18T10:21:58.896Z,100
2022-12-18T10:31:59.789Z,100
2022-12-18T10:42:00.764Z,100
2022-12-18T10:52:01.010Z,100
2022-12-18T11:12:02.557Z,100
2022-12-18T11:22:03.326Z,100
2022-12-18T11:42:04.179Z,100
2022-12-18T11:52:05.187Z,100
2022-12-18T12:02:05.424Z,100
2022-12-18T12:12:06.329Z,100
2022-12-18T12:22:06.814Z,100
2022-12-18T12:32:06.914Z,100
2022-12-18T12:42:07.641Z,100
2022-12-18T13:02:09.033Z,100
2022-12-18T13:12:09.145Z,100
2022-12-18T13:12:33.279Z,100
2022-12-18T13:22:15.649Z,100
2022-12-18T13:32:19.792Z,100
2022-12-18T13:42:17.243Z,100
2022-12-18T13:52:17.567Z,100
2022-12-18T14:02:18.617Z,100
2022-12-18T14:12:18.936Z,100
2022-12-18T14:22:19.431Z,100
2022-12-18T14:32:19.703Z,100
2022-12-18T14:42:20.731Z,100
2022-12-18T14:52:21.176Z,100
2022-12-18T15:02:21.864Z,100
2022-12-18T15:12:21.858Z,100
2022-12-18T15:22:22.280Z,100
2022-12-18T15:32:22.989Z,100
2022-12-18T15:52:24.205Z,100
2022-12-18T16:22:25.853Z,100
2022-12-18T16:32:26.105Z,100
2022-12-18T16:42:26.290Z,100
2022-12-18T16:52:27.018Z,100
2022-12-18T17:12:28.159Z,100
2022-12-18T17:32:29.578Z,100
2022-12-18T17:42:30.170Z,100
2022-12-18T17:52:30.413Z,100
2022-12-18T18:12:31.559Z,100
2022-12-18T18:22:31.904Z,100
2022-12-18T18:32:32.888Z,100
2022-12-18T18:52:34.903Z,100
2022-12-18T19:02:35.678Z,100
2022-12-18T19:12:36.516Z,99
2022-12-18T19:22:37.007Z,98
2022-12-18T19:32:37.504Z,96
2022-12-18T19:42:37.763Z,95
2022-12-18T20:02:39.518Z,94
2022-12-18T20:12:39.500Z,93
2022-12-18T20:32:39.879Z,92
2022-12-18T20:42:40.141Z,91
2022-12-18T20:52:40.965Z,91
2022-12-18T21:02:41.559Z,91
2022-12-18T21:12:48.365Z,90
2022-12-18T21:22:42.930Z,90
2022-12-18T21:32:43.233Z,90
2022-12-18T21:42:43.383Z,91
2022-12-18T21:52:43.921Z,92
2022-12-18T22:02:44.682Z,93
2022-12-18T22:12:45.930Z,94
2022-12-18T22:22:45.689Z,95
2022-12-18T22:32:46.440Z,96
2022-12-18T22:42:46.586Z,97
2022-12-18T22:52:47.434Z,98
2022-12-18T23:02:48.152Z,99
2022-12-18T23:22:49.327Z,100
2022-12-18T23:32:49.638Z,100
2022-12-18T23:42:50.630Z,100
2022-12-18T23:52:51.138Z,100
